createdAt,value
2019-02-27T00:04:07.590Z,125.50
2019-02-27T00:09:12.453Z,117.93
2019-02-27T00:14:16.678Z,127.07
2019-02-27T00:19:20.915Z,122.73
2019-02-27T00:24:29.626Z,124.43
2019-02-27T00:29:31.127Z,116.97
2019-02-27T00:34:35.380Z,125.60
2019-02-27T00:39:40.002Z,125.00
2019-02-27T00:44:44.259Z,123.90
2019-02-27T00:49:48.470Z,124.23
2019-02-27T00:54:52.885Z,132.10
2019-02-27T00:59:57.115Z,122.00
2019-02-27T01:05:01.341Z,127.70
2019-02-27T01:10:06.479Z,133.70
2019-02-27T01:15:11.305Z,129.90
2019-02-27T01:20:15.690Z,137.73
2019-02-27T01:25:22.854Z,116.63
2019-02-27T01:30:25.893Z,131.00
2019-02-27T01:35:30.137Z,130.53
2019-02-27T01:40:34.403Z,120.73
2019-02-27T01:45:38.635Z,134.40
2019-02-27T01:50:42.863Z,124.77
2019-02-27T01:55:47.099Z,125.00
2019-02-27T02:00:51.326Z,122.07
2019-02-27T02:05:58.857Z,130.73
2019-02-27T02:11:02.111Z,134.27
2019-02-27T02:16:46.479Z,129.13
2019-02-27T02:22:21.566Z,132.20
2019-02-27T02:28:18.748Z,120.97
2019-02-27T02:34:14.942Z,134.53
2019-02-27T02:40:10.026Z,137.40
2019-02-27T02:45:35.642Z,132.93
2019-02-27T02:51:29.085Z,128.60
2019-02-27T02:57:25.575Z,129.53
2019-02-27T03:03:13.876Z,128.63
2019-02-27T03:08:28.654Z,131.90
2019-02-27T03:13:54.525Z,131.37
2019-02-27T03:19:07.304Z,125.93
2019-02-27T03:24:20.049Z,125.43
2019-02-27T03:30:00.547Z,113.37
2019-02-27T03:35:31.181Z,126.40
2019-02-27T03:41:22.842Z,124.37
2019-02-27T03:47:02.517Z,121.67
2019-02-27T03:52:52.196Z,123.63
2019-02-27T03:58:17.054Z,120.37
2019-02-27T04:03:56.059Z,129.93
2019-02-27T04:09:01.328Z,125.23
2019-02-27T04:14:28.671Z,126.67
2019-02-27T04:19:38.882Z,134.23
2019-02-27T04:24:39.188Z,125.37
2019-02-27T04:29:43.406Z,121.33
2019-02-27T04:34:47.654Z,116.23
2019-02-27T04:39:51.929Z,129.97
2019-02-27T04:44:56.175Z,127.40
2019-02-27T04:50:00.397Z,122.60
2019-02-27T04:55:04.924Z,120.27
2019-02-27T05:00:09.630Z,123.80
2019-02-27T05:05:13.873Z,136.43
2019-02-27T05:10:18.115Z,128.77
2019-02-27T05:15:22.361Z,126.87
2019-02-27T05:20:28.797Z,122.17
2019-02-27T05:25:33.225Z,120.60
2019-02-27T05:30:37.478Z,128.23
2019-02-27T05:35:41.725Z,124.87
2019-02-27T05:40:45.972Z,128.33
2019-02-27T05:45:50.195Z,125.43
2019-02-27T05:50:54.423Z,120.30
2019-02-27T05:55:58.661Z,123.80
2019-02-27T06:01:04.972Z,116.77
2019-02-27T06:06:11.568Z,129.87
2019-02-27T06:11:27.111Z,116.10
2019-02-27T06:16:31.793Z,109.90
2019-02-27T06:21:36.498Z,110.13
2019-02-27T06:26:40.846Z,109.97
2019-02-27T06:31:45.111Z,106.37
2019-02-27T06:36:49.351Z,107.43
2019-02-27T06:41:53.585Z,100.00
2019-02-27T06:46:57.882Z,97.23
2019-02-27T06:52:02.116Z,104.13
2019-02-27T06:57:07.671Z,95.27
2019-02-27T07:02:12.618Z,103.63
2019-02-27T07:07:17.775Z,92.87
2019-02-27T07:12:22.384Z,88.87
2019-02-27T07:17:29.183Z,90.60
2019-02-27T07:22:32.653Z,91.97
2019-02-27T07:27:37.015Z,91.37
2019-02-27T07:32:41.382Z,82.33
2019-02-27T07:37:47.981Z,84.03
2019-02-27T07:42:51.859Z,85.70
2019-02-27T07:47:56.055Z,83.10
2019-02-27T07:53:00.343Z,84.83
2019-02-27T07:58:04.593Z,82.10
2019-02-27T08:03:09.799Z,76.47
2019-02-27T08:08:14.969Z,81.43
2019-02-27T08:13:19.220Z,87.10
2019-02-27T08:18:30.171Z,75.73
2019-02-27T08:23:29.582Z,75.50
2019-02-27T08:28:33.816Z,75.47
2019-02-27T08:33:38.260Z,76.53
2019-02-27T08:38:42.484Z,70.27
2019-02-27T08:43:46.705Z,71.47
2019-02-27T08:48:50.949Z,69.40
2019-02-27T08:53:58.981Z,68.50
2019-02-27T08:59:05.002Z,68.17
2019-02-27T09:04:11.572Z,69.13
2019-02-27T09:09:15.035Z,74.03
2019-02-27T09:14:19.299Z,80.27
2019-02-27T09:19:23.575Z,78.73
2019-02-27T09:24:27.773Z,72.57
2019-02-27T09:29:32.002Z,72.23
2019-02-27T09:34:36.450Z,65.53
2019-02-27T09:39:40.727Z,66.50
2019-02-27T09:44:45.108Z,57.30
2019-02-27T09:49:49.350Z,66.73
2019-02-27T09:54:54.867Z,60.50
2019-02-27T09:59:59.216Z,63.03
2019-02-27T10:05:03.944Z,59.67
2019-02-27T10:10:10.428Z,56.30
2019-02-27T10:15:14.512Z,61.08
2019-02-27T10:20:18.879Z,59.05
2019-02-27T10:25:23.131Z,54.80
2019-02-27T10:30:27.378Z,49.65
2019-02-27T10:35:31.631Z,54.98
2019-02-27T10:40:35.922Z,48.25
2019-02-27T10:45:42.094Z,46.40
2019-02-27T10:50:46.130Z,48.08
2019-02-27T10:55:50.373Z,45.52
2019-02-27T11:00:54.604Z,45.25
2019-02-27T11:05:59.164Z,44.00
2019-02-27T11:11:03.399Z,42.73
2019-02-27T11:16:07.650Z,35.08
2019-02-27T11:21:11.894Z,38.58
2019-02-27T11:26:16.131Z,36.80
2019-02-27T11:31:20.517Z,40.58
2019-02-27T11:36:24.753Z,35.30
2019-02-27T11:41:28.991Z,40.30
2019-02-27T11:46:35.114Z,37.90
2019-02-27T11:51:39.249Z,38.67
2019-02-27T11:56:43.516Z,34.88
2019-02-27T12:01:47.780Z,34.88
2019-02-27T12:06:52.003Z,31.55
2019-02-27T12:11:56.272Z,36.63
2019-02-27T12:17:00.524Z,25.32
2019-02-27T12:22:04.808Z,26.52
2019-02-27T12:27:10.374Z,31.37
2019-02-27T12:32:15.015Z,26.45
2019-02-27T12:37:28.133Z,27.40
2019-02-27T12:42:25.249Z,25.57
2019-02-27T12:47:29.595Z,26.12
2019-02-27T12:52:33.831Z,21.60
2019-02-27T12:57:38.213Z,25.45
2019-02-27T13:02:42.581Z,21.55
2019-02-27T13:07:46.833Z,19.95
2019-02-27T13:12:51.929Z,18.12
2019-02-27T13:17:58.014Z,25.50
2019-02-27T13:23:05.119Z,20.48
2019-02-27T13:28:08.495Z,18.12
2019-02-27T13:33:12.731Z,18.32
2019-02-27T13:38:18.370Z,19.70
2019-02-27T13:43:24.383Z,21.23
2019-02-27T13:48:28.903Z,17.62
2019-02-27T13:53:33.146Z,20.32
2019-02-27T13:58:37.406Z,19.77
2019-02-27T14:03:41.688Z,19.32
2019-02-27T14:08:45.939Z,20.30
2019-02-27T14:13:50.174Z,16.25
2019-02-27T14:18:54.413Z,19.32
2019-02-27T14:23:58.647Z,16.42
2019-02-27T14:29:04.151Z,15.35
2019-02-27T14:34:08.493Z,17.12
2019-02-27T14:39:14.720Z,16.37
2019-02-27T14:44:19.014Z,20.95
2019-02-27T14:49:23.886Z,13.78
2019-02-27T14:54:30.082Z,15.93
2019-02-27T14:59:34.477Z,27.70
2019-02-27T15:04:38.764Z,16.50
2019-02-27T15:09:47.761Z,15.38
2019-02-27T15:14:48.993Z,17.82
2019-02-27T15:20:04.828Z,22.62
2019-02-27T15:25:09.447Z,19.23
2019-02-27T15:30:16.342Z,21.17
2019-02-27T15:35:21.871Z,16.55
2019-02-27T15:40:29.700Z,23.60
2019-02-27T15:45:32.924Z,20.10
2019-02-27T15:50:37.271Z,19.42
2019-02-27T15:55:41.592Z,22.02
2019-02-27T16:00:45.795Z,21.40
2019-02-27T16:05:50.048Z,20.62
2019-02-27T16:10:55.105Z,18.62
2019-02-27T16:15:59.636Z,19.70
2019-02-27T16:21:03.855Z,20.23
2019-02-27T16:26:08.229Z,19.70
2019-02-27T16:31:12.439Z,26.42
2019-02-27T16:36:17.390Z,20.60
2019-02-27T16:41:27.886Z,21.07
2019-02-27T16:46:27.653Z,24.40
2019-02-27T16:51:34.767Z,22.82
2019-02-27T16:56:38.575Z,28.73
2019-02-27T17:01:42.835Z,26.65
2019-02-27T17:06:49.207Z,24.12
2019-02-27T17:11:53.097Z,25.62
2019-02-27T17:16:57.446Z,26.10
2019-02-27T17:22:01.721Z,23.50
2019-02-27T17:27:05.972Z,27.00
2019-02-27T17:32:10.396Z,27.58
2019-02-27T17:37:14.850Z,27.37
2019-02-27T17:42:19.394Z,26.48
2019-02-27T17:47:28.554Z,30.30
2019-02-27T17:52:29.907Z,33.90
2019-02-27T17:57:34.371Z,27.50
2019-02-27T18:02:38.618Z,34.03
2019-02-27T18:07:43.494Z,30.00
2019-02-27T18:12:47.759Z,33.15
2019-02-27T18:17:52.139Z,35.08
2019-02-27T18:22:56.331Z,40.50
2019-02-27T18:28:00.591Z,43.13
2019-02-27T18:33:04.817Z,40.83
2019-02-27T18:38:09.063Z,41.63
2019-02-27T18:43:13.311Z,36.83
2019-02-27T18:48:17.545Z,35.98
2019-02-27T18:53:21.794Z,34.50
2019-02-27T18:58:26.053Z,37.38
2019-02-27T19:03:30.309Z,34.90
2019-02-27T19:08:34.551Z,37.30
2019-02-27T19:13:38.820Z,38.83
2019-02-27T19:18:43.054Z,37.70
2019-02-27T19:23:49.607Z,37.90
2019-02-27T19:28:53.411Z,38.02
2019-02-27T19:33:57.653Z,35.45
2019-02-27T19:39:01.929Z,48.55
2019-02-27T19:44:06.206Z,28.98
2019-02-27T19:49:10.432Z,34.27
2019-02-27T19:54:15.887Z,27.73
2019-02-27T19:59:24.652Z,30.20
2019-02-27T20:04:26.740Z,33.47
2019-02-27T20:09:31.053Z,27.05
2019-02-27T20:14:36.717Z,27.22
2019-02-27T20:19:41.496Z,24.53
2019-02-27T20:24:45.879Z,27.50
2019-02-27T20:29:50.167Z,26.37
2019-02-27T20:34:54.429Z,26.87
2019-02-27T20:39:59.482Z,29.43
2019-02-27T20:45:04.167Z,30.30
2019-02-27T20:50:11.889Z,24.67
2019-02-27T20:55:16.439Z,27.07
2019-02-27T21:00:21.353Z,26.43
2019-02-27T21:05:26.297Z,28.17
2019-02-27T21:10:30.621Z,31.97
2019-02-27T21:15:35.072Z,32.23
2019-02-27T21:20:42.247Z,28.70
2019-02-27T21:25:50.687Z,28.63
2019-02-27T21:30:55.881Z,29.87
2019-02-27T21:36:03.425Z,30.53
2019-02-27T21:41:11.478Z,25.67
2019-02-27T21:46:13.041Z,36.90
2019-02-27T21:51:17.454Z,25.10
2019-02-27T21:56:21.709Z,24.87
2019-02-27T22:01:26.477Z,26.27
2019-02-27T22:06:31.046Z,22.87
2019-02-27T22:11:35.275Z,23.23
2019-02-27T22:16:40.886Z,24.17
2019-02-27T22:21:45.326Z,17.77
2019-02-27T22:26:50.876Z,19.23
2019-02-27T22:31:59.595Z,17.10
2019-02-27T22:37:04.821Z,18.60
2019-02-27T22:42:14.485Z,19.60
2019-02-27T22:47:21.151Z,22.87
2019-02-27T22:52:22.276Z,18.07
2019-02-27T22:57:30.515Z,16.37
2019-02-27T23:02:36.065Z,20.37
2019-02-27T23:07:40.926Z,17.03
2019-02-27T23:12:45.828Z,17.50
2019-02-27T23:17:50.067Z,19.90
2019-02-27T23:22:54.412Z,14.17
2019-02-27T23:28:00.750Z,18.53
2019-02-27T23:33:04.881Z,15.93
2019-02-27T23:38:09.300Z,16.17
2019-02-27T23:43:13.534Z,15.00
2019-02-27T23:48:17.754Z,16.60
2019-02-27T23:53:24.449Z,15.23
2019-02-27T23:58:29.543Z,15.50
